<?xml version="1.0" encoding="UTF-8" standalone="no" ?>
<gpx xmlns="http://www.topografix.com/GPX/1/1" xmlns:xsi="http://www.w3.org/2001/XMLSchema-instance" xsi:schemaLocation="http://www.topografix.com/GPX/1/1 http://www.topografix.com/GPX/1/1/gpx.xsd" version="1.1" creator="VisuGPX - https://www.visugpx.com">
  <metadata>
    <name>secteur Saverne - Dabo - Petite Pierre</name>
  </metadata>
  <trk>
    <name><![CDATA[secteur Saverne - Dabo - Petite Pierre_19]]></name>
    <trkseg>
      <trkpt lat="48.74711" lon="7.27672">
        <ele>299.76</ele>
        <time>2020-05-21T19:05:58.000Z</time>
      </trkpt>
      <trkpt lat="48.74711" lon="7.27672">
        <ele>299.76</ele>
        <time>2020-05-21T19:05:58.000Z</time>
      </trkpt>
      <trkpt lat="48.74711" lon="7.27672">
        <ele>299.76</ele>
        <time>2020-05-21T19:05:58.000Z</time>
      </trkpt>
      <trkpt lat="48.74711" lon="7.27672">
        <ele>299.76</ele>
        <time>2020-05-21T19:05:58.000Z</time>
      </trkpt>
      <trkpt lat="48.74711" lon="7.27672">
        <ele>299.76</ele>
        <time>2020-05-21T19:05:58.000Z</time>
      </trkpt>
      <trkpt lat="48.74711" lon="7.27672">
        <ele>299.76</ele>
        <time>2020-05-21T19:05:58.000Z</time>
      </trkpt>
      <trkpt lat="48.74711" lon="7.27672">
        <ele>299.76</ele>
        <time>2020-05-21T19:05:58.000Z</time>
      </trkpt>
      <trkpt lat="48.74706" lon="7.27679">
        <ele>299.94</ele>
        <time>2020-05-21T19:05:59.000Z</time>
      </trkpt>
      <trkpt lat="48.74702" lon="7.27688">
        <ele>298.35</ele>
        <time>2020-05-21T19:06:00.000Z</time>
      </trkpt>
      <trkpt lat="48.74699" lon="7.27697">
        <ele>299.58</ele>
        <time>2020-05-21T19:06:01.000Z</time>
      </trkpt>
      <trkpt lat="48.74694" lon="7.27705">
        <ele>299.49</ele>
        <time>2020-05-21T19:06:02.000Z</time>
      </trkpt>
      <trkpt lat="48.74691" lon="7.27712">
        <ele>298.1</ele>
        <time>2020-05-21T19:06:03.000Z</time>
      </trkpt>
      <trkpt lat="48.74686" lon="7.27719">
        <ele>297.5</ele>
        <time>2020-05-21T19:06:04.000Z</time>
      </trkpt>
      <trkpt lat="48.74683" lon="7.27726">
        <ele>295.16</ele>
        <time>2020-05-21T19:06:06.000Z</time>
      </trkpt>
      <trkpt lat="48.74678" lon="7.27733">
        <ele>295.02</ele>
        <time>2020-05-21T19:06:08.000Z</time>
      </trkpt>
      <trkpt lat="48.74671" lon="7.27741">
        <ele>291.07</ele>
        <time>2020-05-21T19:06:10.000Z</time>
      </trkpt>
      <trkpt lat="48.74668" lon="7.27747">
        <ele>291.41</ele>
        <time>2020-05-21T19:06:11.000Z</time>
      </trkpt>
      <trkpt lat="48.74664" lon="7.27752">
        <ele>291.09</ele>
        <time>2020-05-21T19:06:12.000Z</time>
      </trkpt>
      <trkpt lat="48.74661" lon="7.27759">
        <ele>290.85</ele>
        <time>2020-05-21T19:06:13.000Z</time>
      </trkpt>
      <trkpt lat="48.74658" lon="7.27765">
        <ele>293.05</ele>
        <time>2020-05-21T19:06:14.000Z</time>
      </trkpt>
      <trkpt lat="48.74653" lon="7.27771">
        <ele>293.06</ele>
        <time>2020-05-21T19:06:15.000Z</time>
      </trkpt>
      <trkpt lat="48.74649" lon="7.27776">
        <ele>292.86</ele>
        <time>2020-05-21T19:06:16.000Z</time>
      </trkpt>
      <trkpt lat="48.74645" lon="7.27781">
        <ele>292.49</ele>
        <time>2020-05-21T19:06:17.000Z</time>
      </trkpt>
      <trkpt lat="48.74629" lon="7.27794">
        <ele>291.08</ele>
        <time>2020-05-21T19:06:20.000Z</time>
      </trkpt>
      <trkpt lat="48.74623" lon="7.27799">
        <ele>291.55</ele>
        <time>2020-05-21T19:06:21.000Z</time>
      </trkpt>
      <trkpt lat="48.74619" lon="7.27804">
        <ele>290.95</ele>
        <time>2020-05-21T19:06:22.000Z</time>
      </trkpt>
      <trkpt lat="48.74613" lon="7.27807">
        <ele>291.86</ele>
        <time>2020-05-21T19:06:23.000Z</time>
      </trkpt>
      <trkpt lat="48.74607" lon="7.27816">
        <ele>288.89</ele>
        <time>2020-05-21T19:06:24.000Z</time>
      </trkpt>
      <trkpt lat="48.74602" lon="7.27822">
        <ele>289.42</ele>
        <time>2020-05-21T19:06:25.000Z</time>
      </trkpt>
      <trkpt lat="48.74597" lon="7.2783">
        <ele>288.71</ele>
        <time>2020-05-21T19:06:26.000Z</time>
      </trkpt>
      <trkpt lat="48.74592" lon="7.27835">
        <ele>289.88</ele>
        <time>2020-05-21T19:06:27.000Z</time>
      </trkpt>
      <trkpt lat="48.74587" lon="7.27841">
        <ele>289.36</ele>
        <time>2020-05-21T19:06:28.000Z</time>
      </trkpt>
      <trkpt lat="48.74574" lon="7.27851">
        <ele>288.45</ele>
        <time>2020-05-21T19:06:30.000Z</time>
      </trkpt>
      <trkpt lat="48.74568" lon="7.27857">
        <ele>289.19</ele>
        <time>2020-05-21T19:06:31.000Z</time>
      </trkpt>
      <trkpt lat="48.74563" lon="7.27863">
        <ele>288.4</ele>
        <time>2020-05-21T19:06:32.000Z</time>
      </trkpt>
      <trkpt lat="48.74558" lon="7.27869">
        <ele>289.08</ele>
        <time>2020-05-21T19:06:33.000Z</time>
      </trkpt>
      <trkpt lat="48.74552" lon="7.27873">
        <ele>289.57</ele>
        <time>2020-05-21T19:06:34.000Z</time>
      </trkpt>
      <trkpt lat="48.74548" lon="7.27874">
        <ele>291.73</ele>
        <time>2020-05-21T19:06:35.000Z</time>
      </trkpt>
      <trkpt lat="48.74543" lon="7.27877">
        <ele>292.32</ele>
        <time>2020-05-21T19:06:36.000Z</time>
      </trkpt>
      <trkpt lat="48.74538" lon="7.27882">
        <ele>291.88</ele>
        <time>2020-05-21T19:06:37.000Z</time>
      </trkpt>
      <trkpt lat="48.74534" lon="7.27885">
        <ele>291.89</ele>
        <time>2020-05-21T19:06:38.000Z</time>
      </trkpt>
      <trkpt lat="48.74529" lon="7.27888">
        <ele>291.58</ele>
        <time>2020-05-21T19:06:39.000Z</time>
      </trkpt>
      <trkpt lat="48.74524" lon="7.27893">
        <ele>290.89</ele>
        <time>2020-05-21T19:06:40.000Z</time>
      </trkpt>
      <trkpt lat="48.74514" lon="7.27903">
        <ele>291.63</ele>
        <time>2020-05-21T19:06:42.000Z</time>
      </trkpt>
      <trkpt lat="48.74509" lon="7.27909">
        <ele>291.19</ele>
        <time>2020-05-21T19:06:43.000Z</time>
      </trkpt>
      <trkpt lat="48.74503" lon="7.27915">
        <ele>291.32</ele>
        <time>2020-05-21T19:06:44.000Z</time>
      </trkpt>
      <trkpt lat="48.74496" lon="7.2792">
        <ele>291.72</ele>
        <time>2020-05-21T19:06:45.000Z</time>
      </trkpt>
      <trkpt lat="48.74489" lon="7.27925">
        <ele>292.33</ele>
        <time>2020-05-21T19:06:46.000Z</time>
      </trkpt>
      <trkpt lat="48.74482" lon="7.2793">
        <ele>291.17</ele>
        <time>2020-05-21T19:06:47.000Z</time>
      </trkpt>
      <trkpt lat="48.74475" lon="7.27933">
        <ele>291.23</ele>
        <time>2020-05-21T19:06:48.000Z</time>
      </trkpt>
      <trkpt lat="48.74468" lon="7.27939">
        <ele>289.99</ele>
        <time>2020-05-21T19:06:49.000Z</time>
      </trkpt>
      <trkpt lat="48.7446" lon="7.27943">
        <ele>289.54</ele>
        <time>2020-05-21T19:06:50.000Z</time>
      </trkpt>
      <trkpt lat="48.74453" lon="7.27948">
        <ele>289.15</ele>
        <time>2020-05-21T19:06:51.000Z</time>
      </trkpt>
      <trkpt lat="48.74447" lon="7.27953">
        <ele>290.7</ele>
        <time>2020-05-21T19:06:52.000Z</time>
      </trkpt>
      <trkpt lat="48.74439" lon="7.27959">
        <ele>290.47</ele>
        <time>2020-05-21T19:06:53.000Z</time>
      </trkpt>
      <trkpt lat="48.74432" lon="7.27964">
        <ele>290.11</ele>
        <time>2020-05-21T19:06:54.000Z</time>
      </trkpt>
      <trkpt lat="48.74424" lon="7.27969">
        <ele>289.07</ele>
        <time>2020-05-21T19:06:55.000Z</time>
      </trkpt>
      <trkpt lat="48.74415" lon="7.27975">
        <ele>287.61</ele>
        <time>2020-05-21T19:06:56.000Z</time>
      </trkpt>
      <trkpt lat="48.74408" lon="7.27981">
        <ele>287.06</ele>
        <time>2020-05-21T19:06:57.000Z</time>
      </trkpt>
      <trkpt lat="48.744" lon="7.27986">
        <ele>287.12</ele>
        <time>2020-05-21T19:06:58.000Z</time>
      </trkpt>
      <trkpt lat="48.74392" lon="7.27991">
        <ele>286.99</ele>
        <time>2020-05-21T19:06:59.000Z</time>
      </trkpt>
      <trkpt lat="48.74383" lon="7.27994">
        <ele>286.56</ele>
        <time>2020-05-21T19:07:00.000Z</time>
      </trkpt>
      <trkpt lat="48.74376" lon="7.27998">
        <ele>286.55</ele>
        <time>2020-05-21T19:07:01.000Z</time>
      </trkpt>
      <trkpt lat="48.74368" lon="7.28001">
        <ele>285.78</ele>
        <time>2020-05-21T19:07:02.000Z</time>
      </trkpt>
      <trkpt lat="48.74361" lon="7.28005">
        <ele>285.63</ele>
        <time>2020-05-21T19:07:03.000Z</time>
      </trkpt>
      <trkpt lat="48.74353" lon="7.2801">
        <ele>285.26</ele>
        <time>2020-05-21T19:07:04.000Z</time>
      </trkpt>
      <trkpt lat="48.74346" lon="7.28015">
        <ele>285.56</ele>
        <time>2020-05-21T19:07:05.000Z</time>
      </trkpt>
      <trkpt lat="48.74339" lon="7.28021">
        <ele>285.99</ele>
        <time>2020-05-21T19:07:06.000Z</time>
      </trkpt>
      <trkpt lat="48.74331" lon="7.28028">
        <ele>285.78</ele>
        <time>2020-05-21T19:07:07.000Z</time>
      </trkpt>
      <trkpt lat="48.74325" lon="7.28035">
        <ele>286.84</ele>
        <time>2020-05-21T19:07:08.000Z</time>
      </trkpt>
      <trkpt lat="48.74319" lon="7.28042">
        <ele>286.48</ele>
        <time>2020-05-21T19:07:09.000Z</time>
      </trkpt>
      <trkpt lat="48.74313" lon="7.28047">
        <ele>288.33</ele>
        <time>2020-05-21T19:07:10.000Z</time>
      </trkpt>
      <trkpt lat="48.74306" lon="7.28055">
        <ele>287.75</ele>
        <time>2020-05-21T19:07:11.000Z</time>
      </trkpt>
      <trkpt lat="48.743" lon="7.28061">
        <ele>288.31</ele>
        <time>2020-05-21T19:07:12.000Z</time>
      </trkpt>
      <trkpt lat="48.74293" lon="7.28066">
        <ele>287.9</ele>
        <time>2020-05-21T19:07:13.000Z</time>
      </trkpt>
      <trkpt lat="48.74288" lon="7.28073">
        <ele>289.16</ele>
        <time>2020-05-21T19:07:14.000Z</time>
      </trkpt>
      <trkpt lat="48.74283" lon="7.28078">
        <ele>287.84</ele>
        <time>2020-05-21T19:07:15.000Z</time>
      </trkpt>
      <trkpt lat="48.74277" lon="7.28083">
        <ele>287.05</ele>
        <time>2020-05-21T19:07:16.000Z</time>
      </trkpt>
      <trkpt lat="48.74272" lon="7.28088">
        <ele>287.69</ele>
        <time>2020-05-21T19:07:17.000Z</time>
      </trkpt>
      <trkpt lat="48.74266" lon="7.28092">
        <ele>287.31</ele>
        <time>2020-05-21T19:07:18.000Z</time>
      </trkpt>
      <trkpt lat="48.74261" lon="7.28097">
        <ele>287.5</ele>
        <time>2020-05-21T19:07:19.000Z</time>
      </trkpt>
      <trkpt lat="48.74256" lon="7.28101">
        <ele>287.12</ele>
        <time>2020-05-21T19:07:20.000Z</time>
      </trkpt>
      <trkpt lat="48.7425" lon="7.28103">
        <ele>287.34</ele>
        <time>2020-05-21T19:07:21.000Z</time>
      </trkpt>
      <trkpt lat="48.74244" lon="7.28106">
        <ele>287.71</ele>
        <time>2020-05-21T19:07:22.000Z</time>
      </trkpt>
      <trkpt lat="48.74238" lon="7.28108">
        <ele>287.27</ele>
        <time>2020-05-21T19:07:23.000Z</time>
      </trkpt>
      <trkpt lat="48.74232" lon="7.28109">
        <ele>287.73</ele>
        <time>2020-05-21T19:07:24.000Z</time>
      </trkpt>
      <trkpt lat="48.74226" lon="7.2811">
        <ele>287.24</ele>
        <time>2020-05-21T19:07:25.000Z</time>
      </trkpt>
      <trkpt lat="48.74221" lon="7.28112">
        <ele>286.6</ele>
        <time>2020-05-21T19:07:26.000Z</time>
      </trkpt>
      <trkpt lat="48.74215" lon="7.28115">
        <ele>285.92</ele>
        <time>2020-05-21T19:07:27.000Z</time>
      </trkpt>
      <trkpt lat="48.74209" lon="7.28118">
        <ele>285.58</ele>
        <time>2020-05-21T19:07:28.000Z</time>
      </trkpt>
      <trkpt lat="48.74204" lon="7.28122">
        <ele>284.78</ele>
        <time>2020-05-21T19:07:29.000Z</time>
      </trkpt>
      <trkpt lat="48.74198" lon="7.28128">
        <ele>284.1</ele>
        <time>2020-05-21T19:07:30.000Z</time>
      </trkpt>
      <trkpt lat="48.74193" lon="7.28133">
        <ele>284.61</ele>
        <time>2020-05-21T19:07:31.000Z</time>
      </trkpt>
      <trkpt lat="48.74188" lon="7.28139">
        <ele>284.58</ele>
        <time>2020-05-21T19:07:32.000Z</time>
      </trkpt>
      <trkpt lat="48.74182" lon="7.28145">
        <ele>284.56</ele>
        <time>2020-05-21T19:07:33.000Z</time>
      </trkpt>
      <trkpt lat="48.74177" lon="7.28152">
        <ele>284.72</ele>
        <time>2020-05-21T19:07:34.000Z</time>
      </trkpt>
      <trkpt lat="48.74171" lon="7.28157">
        <ele>284.33</ele>
        <time>2020-05-21T19:07:35.000Z</time>
      </trkpt>
      <trkpt lat="48.74164" lon="7.28161">
        <ele>284.16</ele>
        <time>2020-05-21T19:07:36.000Z</time>
      </trkpt>
      <trkpt lat="48.74157" lon="7.28166">
        <ele>283.41</ele>
        <time>2020-05-21T19:07:37.000Z</time>
      </trkpt>
      <trkpt lat="48.74149" lon="7.28169">
        <ele>282.16</ele>
        <time>2020-05-21T19:07:38.000Z</time>
      </trkpt>
      <trkpt lat="48.74141" lon="7.28171">
        <ele>282.38</ele>
        <time>2020-05-21T19:07:39.000Z</time>
      </trkpt>
      <trkpt lat="48.74133" lon="7.28171">
        <ele>281.46</ele>
        <time>2020-05-21T19:07:40.000Z</time>
      </trkpt>
      <trkpt lat="48.74125" lon="7.28171">
        <ele>280.26</ele>
        <time>2020-05-21T19:07:41.000Z</time>
      </trkpt>
      <trkpt lat="48.74118" lon="7.28172">
        <ele>279.8</ele>
        <time>2020-05-21T19:07:42.000Z</time>
      </trkpt>
      <trkpt lat="48.74111" lon="7.28175">
        <ele>279.27</ele>
        <time>2020-05-21T19:07:43.000Z</time>
      </trkpt>
      <trkpt lat="48.74104" lon="7.28176">
        <ele>278.83</ele>
        <time>2020-05-21T19:07:44.000Z</time>
      </trkpt>
      <trkpt lat="48.74098" lon="7.2818">
        <ele>278.82</ele>
        <time>2020-05-21T19:07:45.000Z</time>
      </trkpt>
      <trkpt lat="48.7409" lon="7.28183">
        <ele>280</ele>
        <time>2020-05-21T19:07:46.000Z</time>
      </trkpt>
      <trkpt lat="48.74084" lon="7.28188">
        <ele>280.3</ele>
        <time>2020-05-21T19:07:47.000Z</time>
      </trkpt>
      <trkpt lat="48.74077" lon="7.28194">
        <ele>280.43</ele>
        <time>2020-05-21T19:07:48.000Z</time>
      </trkpt>
      <trkpt lat="48.74071" lon="7.282">
        <ele>280.57</ele>
        <time>2020-05-21T19:07:49.000Z</time>
      </trkpt>
      <trkpt lat="48.74065" lon="7.28205">
        <ele>280.76</ele>
        <time>2020-05-21T19:07:50.000Z</time>
      </trkpt>
      <trkpt lat="48.74059" lon="7.28211">
        <ele>280.82</ele>
        <time>2020-05-21T19:07:51.000Z</time>
      </trkpt>
      <trkpt lat="48.74053" lon="7.28216">
        <ele>281.63</ele>
        <time>2020-05-21T19:07:52.000Z</time>
      </trkpt>
      <trkpt lat="48.74048" lon="7.28222">
        <ele>281.41</ele>
        <time>2020-05-21T19:07:53.000Z</time>
      </trkpt>
      <trkpt lat="48.74042" lon="7.28227">
        <ele>281.38</ele>
        <time>2020-05-21T19:07:54.000Z</time>
      </trkpt>
      <trkpt lat="48.74035" lon="7.2823">
        <ele>280.2</ele>
        <time>2020-05-21T19:07:55.000Z</time>
      </trkpt>
      <trkpt lat="48.74028" lon="7.28232">
        <ele>280.33</ele>
        <time>2020-05-21T19:07:56.000Z</time>
      </trkpt>
      <trkpt lat="48.74021" lon="7.28235">
        <ele>279.58</ele>
        <time>2020-05-21T19:07:57.000Z</time>
      </trkpt>
      <trkpt lat="48.74015" lon="7.28236">
        <ele>278.61</ele>
        <time>2020-05-21T19:07:58.000Z</time>
      </trkpt>
      <trkpt lat="48.74009" lon="7.28237">
        <ele>278.12</ele>
        <time>2020-05-21T19:07:59.000Z</time>
      </trkpt>
      <trkpt lat="48.74004" lon="7.28239">
        <ele>276.94</ele>
        <time>2020-05-21T19:08:00.000Z</time>
      </trkpt>
      <trkpt lat="48.73997" lon="7.2824">
        <ele>277.15</ele>
        <time>2020-05-21T19:08:01.000Z</time>
      </trkpt>
      <trkpt lat="48.73991" lon="7.28242">
        <ele>276.63</ele>
        <time>2020-05-21T19:08:02.000Z</time>
      </trkpt>
      <trkpt lat="48.73986" lon="7.28245">
        <ele>276.44</ele>
        <time>2020-05-21T19:08:03.000Z</time>
      </trkpt>
      <trkpt lat="48.73979" lon="7.28248">
        <ele>276.7</ele>
        <time>2020-05-21T19:08:04.000Z</time>
      </trkpt>
      <trkpt lat="48.73972" lon="7.2825">
        <ele>277.37</ele>
        <time>2020-05-21T19:08:05.000Z</time>
      </trkpt>
      <trkpt lat="48.73964" lon="7.28256">
        <ele>277.03</ele>
        <time>2020-05-21T19:08:06.000Z</time>
      </trkpt>
      <trkpt lat="48.73959" lon="7.28257">
        <ele>277.55</ele>
        <time>2020-05-21T19:08:07.000Z</time>
      </trkpt>
      <trkpt lat="48.73953" lon="7.28258">
        <ele>276.98</ele>
        <time>2020-05-21T19:08:08.000Z</time>
      </trkpt>
      <trkpt lat="48.73947" lon="7.28262">
        <ele>278.05</ele>
        <time>2020-05-21T19:08:09.000Z</time>
      </trkpt>
      <trkpt lat="48.73941" lon="7.28266">
        <ele>277.6</ele>
        <time>2020-05-21T19:08:10.000Z</time>
      </trkpt>
      <trkpt lat="48.73935" lon="7.28267">
        <ele>277.67</ele>
        <time>2020-05-21T19:08:11.000Z</time>
      </trkpt>
      <trkpt lat="48.73929" lon="7.28272">
        <ele>277.44</ele>
        <time>2020-05-21T19:08:12.000Z</time>
      </trkpt>
      <trkpt lat="48.73922" lon="7.28275">
        <ele>277.49</ele>
        <time>2020-05-21T19:08:13.000Z</time>
      </trkpt>
      <trkpt lat="48.73916" lon="7.28278">
        <ele>279.37</ele>
        <time>2020-05-21T19:08:14.000Z</time>
      </trkpt>
      <trkpt lat="48.73909" lon="7.2828">
        <ele>279.45</ele>
        <time>2020-05-21T19:08:15.000Z</time>
      </trkpt>
      <trkpt lat="48.73903" lon="7.28282">
        <ele>280.6</ele>
        <time>2020-05-21T19:08:16.000Z</time>
      </trkpt>
      <trkpt lat="48.73896" lon="7.28287">
        <ele>279.51</ele>
        <time>2020-05-21T19:08:17.000Z</time>
      </trkpt>
      <trkpt lat="48.73889" lon="7.28289">
        <ele>278.98</ele>
        <time>2020-05-21T19:08:18.000Z</time>
      </trkpt>
      <trkpt lat="48.73883" lon="7.28291">
        <ele>278.8</ele>
        <time>2020-05-21T19:08:19.000Z</time>
      </trkpt>
      <trkpt lat="48.73877" lon="7.28293">
        <ele>278.9</ele>
        <time>2020-05-21T19:08:20.000Z</time>
      </trkpt>
      <trkpt lat="48.73868" lon="7.28293">
        <ele>277.73</ele>
        <time>2020-05-21T19:08:21.000Z</time>
      </trkpt>
      <trkpt lat="48.73861" lon="7.28294">
        <ele>277.5</ele>
        <time>2020-05-21T19:08:22.000Z</time>
      </trkpt>
      <trkpt lat="48.73853" lon="7.28294">
        <ele>277.24</ele>
        <time>2020-05-21T19:08:23.000Z</time>
      </trkpt>
      <trkpt lat="48.73845" lon="7.28296">
        <ele>276.36</ele>
        <time>2020-05-21T19:08:24.000Z</time>
      </trkpt>
      <trkpt lat="48.73838" lon="7.28296">
        <ele>274.9</ele>
        <time>2020-05-21T19:08:25.000Z</time>
      </trkpt>
      <trkpt lat="48.73832" lon="7.28299">
        <ele>273.09</ele>
        <time>2020-05-21T19:08:26.000Z</time>
      </trkpt>
      <trkpt lat="48.73825" lon="7.283">
        <ele>273.27</ele>
        <time>2020-05-21T19:08:27.000Z</time>
      </trkpt>
      <trkpt lat="48.73817" lon="7.283">
        <ele>273.16</ele>
        <time>2020-05-21T19:08:28.000Z</time>
      </trkpt>
      <trkpt lat="48.7381" lon="7.28301">
        <ele>272.91</ele>
        <time>2020-05-21T19:08:29.000Z</time>
      </trkpt>
      <trkpt lat="48.73804" lon="7.28302">
        <ele>271.39</ele>
        <time>2020-05-21T19:08:30.000Z</time>
      </trkpt>
      <trkpt lat="48.73797" lon="7.28302">
        <ele>270.92</ele>
        <time>2020-05-21T19:08:31.000Z</time>
      </trkpt>
      <trkpt lat="48.73791" lon="7.28303">
        <ele>270.03</ele>
        <time>2020-05-21T19:08:32.000Z</time>
      </trkpt>
      <trkpt lat="48.73784" lon="7.28306">
        <ele>269.07</ele>
        <time>2020-05-21T19:08:33.000Z</time>
      </trkpt>
      <trkpt lat="48.73777" lon="7.28307">
        <ele>270.02</ele>
        <time>2020-05-21T19:08:34.000Z</time>
      </trkpt>
      <trkpt lat="48.73769" lon="7.28307">
        <ele>270.19</ele>
        <time>2020-05-21T19:08:35.000Z</time>
      </trkpt>
      <trkpt lat="48.73763" lon="7.28306">
        <ele>269.58</ele>
        <time>2020-05-21T19:08:36.000Z</time>
      </trkpt>
      <trkpt lat="48.73756" lon="7.28307">
        <ele>270.64</ele>
        <time>2020-05-21T19:08:37.000Z</time>
      </trkpt>
      <trkpt lat="48.7375" lon="7.28308">
        <ele>270.2</ele>
        <time>2020-05-21T19:08:38.000Z</time>
      </trkpt>
      <trkpt lat="48.73744" lon="7.28309">
        <ele>270.14</ele>
        <time>2020-05-21T19:08:39.000Z</time>
      </trkpt>
      <trkpt lat="48.73736" lon="7.28309">
        <ele>270.94</ele>
        <time>2020-05-21T19:08:40.000Z</time>
      </trkpt>
      <trkpt lat="48.73731" lon="7.2831">
        <ele>270.49</ele>
        <time>2020-05-21T19:08:41.000Z</time>
      </trkpt>
      <trkpt lat="48.73724" lon="7.2831">
        <ele>270.3</ele>
        <time>2020-05-21T19:08:42.000Z</time>
      </trkpt>
      <trkpt lat="48.73716" lon="7.28307">
        <ele>270.3</ele>
        <time>2020-05-21T19:08:43.000Z</time>
      </trkpt>
      <trkpt lat="48.7371" lon="7.28305">
        <ele>270.37</ele>
        <time>2020-05-21T19:08:44.000Z</time>
      </trkpt>
      <trkpt lat="48.73703" lon="7.28301">
        <ele>270.17</ele>
        <time>2020-05-21T19:08:45.000Z</time>
      </trkpt>
      <trkpt lat="48.73696" lon="7.28298">
        <ele>269.65</ele>
        <time>2020-05-21T19:08:46.000Z</time>
      </trkpt>
      <trkpt lat="48.73688" lon="7.28294">
        <ele>268.38</ele>
        <time>2020-05-21T19:08:47.000Z</time>
      </trkpt>
      <trkpt lat="48.73681" lon="7.28291">
        <ele>268</ele>
        <time>2020-05-21T19:08:48.000Z</time>
      </trkpt>
      <trkpt lat="48.73674" lon="7.28285">
        <ele>269.31</ele>
        <time>2020-05-21T19:08:49.000Z</time>
      </trkpt>
      <trkpt lat="48.73668" lon="7.28279">
        <ele>270.35</ele>
        <time>2020-05-21T19:08:50.000Z</time>
      </trkpt>
      <trkpt lat="48.73661" lon="7.28274">
        <ele>269.24</ele>
        <time>2020-05-21T19:08:51.000Z</time>
      </trkpt>
      <trkpt lat="48.73653" lon="7.28271">
        <ele>269.15</ele>
        <time>2020-05-21T19:08:52.000Z</time>
      </trkpt>
      <trkpt lat="48.73645" lon="7.28267">
        <ele>269.08</ele>
        <time>2020-05-21T19:08:53.000Z</time>
      </trkpt>
      <trkpt lat="48.73637" lon="7.28264">
        <ele>268.97</ele>
        <time>2020-05-21T19:08:54.000Z</time>
      </trkpt>
      <trkpt lat="48.7363" lon="7.2826">
        <ele>269.5</ele>
        <time>2020-05-21T19:08:55.000Z</time>
      </trkpt>
      <trkpt lat="48.73622" lon="7.28255">
        <ele>270.43</ele>
        <time>2020-05-21T19:08:56.000Z</time>
      </trkpt>
      <trkpt lat="48.73614" lon="7.28251">
        <ele>269.3</ele>
        <time>2020-05-21T19:08:57.000Z</time>
      </trkpt>
      <trkpt lat="48.73607" lon="7.28246">
        <ele>267.44</ele>
        <time>2020-05-21T19:08:58.000Z</time>
      </trkpt>
      <trkpt lat="48.736" lon="7.28241">
        <ele>267.28</ele>
        <time>2020-05-21T19:08:59.000Z</time>
      </trkpt>
      <trkpt lat="48.73594" lon="7.28236">
        <ele>267.28</ele>
        <time>2020-05-21T19:09:00.000Z</time>
      </trkpt>
      <trkpt lat="48.73587" lon="7.2823">
        <ele>266.16</ele>
        <time>2020-05-21T19:09:01.000Z</time>
      </trkpt>
      <trkpt lat="48.73581" lon="7.28223">
        <ele>265.2</ele>
        <time>2020-05-21T19:09:02.000Z</time>
      </trkpt>
      <trkpt lat="48.73575" lon="7.28216">
        <ele>264.95</ele>
        <time>2020-05-21T19:09:03.000Z</time>
      </trkpt>
      <trkpt lat="48.73568" lon="7.28214">
        <ele>266.77</ele>
        <time>2020-05-21T19:09:04.000Z</time>
      </trkpt>
      <trkpt lat="48.73561" lon="7.2821">
        <ele>265.89</ele>
        <time>2020-05-21T19:09:05.000Z</time>
      </trkpt>
      <trkpt lat="48.73555" lon="7.28205">
        <ele>266.47</ele>
        <time>2020-05-21T19:09:06.000Z</time>
      </trkpt>
      <trkpt lat="48.73548" lon="7.28202">
        <ele>266.31</ele>
        <time>2020-05-21T19:09:07.000Z</time>
      </trkpt>
      <trkpt lat="48.73541" lon="7.28199">
        <ele>265.9</ele>
        <time>2020-05-21T19:09:08.000Z</time>
      </trkpt>
      <trkpt lat="48.73535" lon="7.28195">
        <ele>266.59</ele>
        <time>2020-05-21T19:09:09.000Z</time>
      </trkpt>
      <trkpt lat="48.73528" lon="7.28191">
        <ele>266.34</ele>
        <time>2020-05-21T19:09:10.000Z</time>
      </trkpt>
      <trkpt lat="48.73522" lon="7.28188">
        <ele>266.16</ele>
        <time>2020-05-21T19:09:11.000Z</time>
      </trkpt>
      <trkpt lat="48.73515" lon="7.28185">
        <ele>267.63</ele>
        <time>2020-05-21T19:09:12.000Z</time>
      </trkpt>
      <trkpt lat="48.7351" lon="7.28181">
        <ele>266.77</ele>
        <time>2020-05-21T19:09:13.000Z</time>
      </trkpt>
      <trkpt lat="48.73505" lon="7.28178">
        <ele>267.7</ele>
        <time>2020-05-21T19:09:14.000Z</time>
      </trkpt>
      <trkpt lat="48.73498" lon="7.28175">
        <ele>267.46</ele>
        <time>2020-05-21T19:09:15.000Z</time>
      </trkpt>
      <trkpt lat="48.73493" lon="7.28172">
        <ele>265.87</ele>
        <time>2020-05-21T19:09:16.000Z</time>
      </trkpt>
      <trkpt lat="48.73488" lon="7.28169">
        <ele>266.91</ele>
        <time>2020-05-21T19:09:17.000Z</time>
      </trkpt>
      <trkpt lat="48.73482" lon="7.28167">
        <ele>266.36</ele>
        <time>2020-05-21T19:09:18.000Z</time>
      </trkpt>
      <trkpt lat="48.73478" lon="7.28164">
        <ele>265.75</ele>
        <time>2020-05-21T19:09:19.000Z</time>
      </trkpt>
      <trkpt lat="48.73472" lon="7.28162">
        <ele>264.77</ele>
        <time>2020-05-21T19:09:20.000Z</time>
      </trkpt>
      <trkpt lat="48.73467" lon="7.28164">
        <ele>264.11</ele>
        <time>2020-05-21T19:09:21.000Z</time>
      </trkpt>
      <trkpt lat="48.73457" lon="7.28164">
        <ele>262.81</ele>
        <time>2020-05-21T19:09:23.000Z</time>
      </trkpt>
      <trkpt lat="48.73452" lon="7.28166">
        <ele>262.24</ele>
        <time>2020-05-21T19:09:24.000Z</time>
      </trkpt>
      <trkpt lat="48.73447" lon="7.28166">
        <ele>261.57</ele>
        <time>2020-05-21T19:09:25.000Z</time>
      </trkpt>
      <trkpt lat="48.73441" lon="7.28165">
        <ele>261.09</ele>
        <time>2020-05-21T19:09:26.000Z</time>
      </trkpt>
      <trkpt lat="48.73434" lon="7.28163">
        <ele>260.72</ele>
        <time>2020-05-21T19:09:27.000Z</time>
      </trkpt>
      <trkpt lat="48.73428" lon="7.28163">
        <ele>260.2</ele>
        <time>2020-05-21T19:09:28.000Z</time>
      </trkpt>
      <trkpt lat="48.7342" lon="7.28163">
        <ele>260.63</ele>
        <time>2020-05-21T19:09:30.000Z</time>
      </trkpt>
      <trkpt lat="48.73414" lon="7.28164">
        <ele>260.88</ele>
        <time>2020-05-21T19:09:31.000Z</time>
      </trkpt>
      <trkpt lat="48.73407" lon="7.28164">
        <ele>260.54</ele>
        <time>2020-05-21T19:09:32.000Z</time>
      </trkpt>
      <trkpt lat="48.734" lon="7.2816">
        <ele>259.87</ele>
        <time>2020-05-21T19:09:33.000Z</time>
      </trkpt>
      <trkpt lat="48.73376" lon="7.28158">
        <ele>257.53</ele>
        <time>2020-05-21T19:09:38.000Z</time>
      </trkpt>
    </trkseg>
  </trk>
</gpx>